Time;durP1;ratioP1;P1;durP2;ratioP2;P2;SDS_P1;SDS_P2;PMS_P1;PMS_P2;Temp;Humidity;BMP_temperature;BMP_pressure;BME280_temperature;BME280_humidity;BME280_pressure;Samples;Min_cycle;Max_cycle;Signal;HPM_P1;HPM_P2
2021/04/02 00:02:22;;;;;;;5.47;3.03;;;22.90;43.20;;;;;;5088070;28;45477;-60
2021/04/02 00:04:48;;;;;;;4.40;2.65;;;22.90;43.20;;;;;;5088241;28;45422;-59
2021/04/02 00:07:14;;;;;;;4.30;2.55;;;22.90;43.20;;;;;;5087910;28;45334;-60
2021/04/02 00:09:39;;;;;;;4.35;2.80;;;22.90;43.20;;;;;;5087761;28;45341;-59
2021/04/02 00:12:05;;;;;;;4.35;2.70;;;22.90;43.20;;;;;;5087915;28;45304;-60
2021/04/02 00:14:31;;;;;;;4.97;2.90;;;22.90;43.20;;;;;;5088284;28;45244;-58
2021/04/02 00:16:57;;;;;;;6.53;3.10;;;22.90;43.20;;;;;;5087712;28;46216;-59
2021/04/02 00:19:22;;;;;;;4.43;3.00;;;22.90;43.20;;;;;;5087777;28;45305;-59
2021/04/02 00:21:48;;;;;;;4.85;2.72;;;22.90;43.20;;;;;;5087589;28;45352;-60
2021/04/02 00:24:13;;;;;;;4.03;2.40;;;22.90;43.20;;;;;;5088343;28;45368;-59
2021/04/02 00:26:39;;;;;;;4.20;2.70;;;22.90;43.30;;;;;;5087908;28;45340;-60
2021/04/02 00:29:05;;;;;;;4.97;3.20;;;22.90;43.30;;;;;;5086712;28;45512;-59
2021/04/02 00:31:30;;;;;;;5.30;2.70;;;22.90;43.30;;;;;;5087781;28;45406;-60
2021/04/02 00:33:56;;;;;;;4.97;3.03;;;22.90;43.30;;;;;;5086239;27;45314;-59
2021/04/02 00:36:22;;;;;;;4.72;3.13;;;22.90;43.20;;;;;;5068252;28;45331;-60
2021/04/02 00:38:47;;;;;;;5.30;3.13;;;22.90;43.30;;;;;;5077954;28;45277;-60
2021/04/02 00:41:15;;;;;;;4.97;3.00;;;22.90;43.30;;;;;;5062937;28;45317;-59
2021/04/02 00:43:46;;;;;;;5.28;2.88;;;22.90;43.30;;;;;;5067592;28;45264;-61
2021/04/02 00:46:11;;;;;;;5.22;3.20;;;22.90;43.30;;;;;;5066363;28;45369;-60
2021/04/02 00:48:38;;;;;;;5.80;3.22;;;22.90;43.30;;;;;;5067056;28;45332;-60
2021/04/02 00:51:28;;;;;;;5.68;3.20;;;22.90;43.30;;;;;;5086582;28;45413;-60
2021/04/02 00:53:53;;;;;;;4.38;2.85;;;22.90;43.20;;;;;;5075484;28;45473;-60
2021/04/02 00:56:20;;;;;;;4.95;2.58;;;22.90;43.30;;;;;;5050006;28;47112;-60
2021/04/02 00:58:45;;;;;;;4.55;2.58;;;22.90;43.30;;;;;;5049791;28;45427;-60
2021/04/02 01:01:12;;;;;;;5.45;3.10;;;22.90;43.30;;;;;;5066253;28;45329;-59
2021/04/02 01:03:37;;;;;;;4.63;2.90;;;22.90;43.30;;;;;;5087606;28;45316;-60
2021/04/02 01:06:05;;;;;;;4.50;2.78;;;22.90;43.30;;;;;;5069541;28;45994;-60
2021/04/02 01:08:32;;;;;;;3.30;2.15;;;22.90;43.30;;;;;;5087936;27;45244;-60
2021/04/02 01:11:01;;;;;;;5.90;2.70;;;22.90;43.30;;;;;;5086946;28;45318;-60
2021/04/02 01:13:30;;;;;;;3.92;2.50;;;22.90;43.30;;;;;;5087480;28;45476;-60
2021/04/02 01:15:58;;;;;;;4.30;2.80;;;22.90;43.30;;;;;;5068802;28;46876;-60
2021/04/02 01:18:32;;;;;;;4.10;2.63;;;22.90;43.30;;;;;;5071883;28;45279;-60
2021/04/02 01:20:59;;;;;;;5.15;2.97;;;22.90;43.30;;;;;;5087078;28;45481;-60
2021/04/02 01:23:34;;;;;;;4.43;2.53;;;22.90;43.30;;;;;;5086868;28;45295;-60
2021/04/02 01:26:12;;;;;;;4.30;2.78;;;22.90;43.30;;;;;;5087909;27;45305;-60
2021/04/02 01:28:51;;;;;;;4.32;2.72;;;22.90;43.30;;;;;;5066253;28;45333;-60
2021/04/02 01:31:16;;;;;;;3.63;2.38;;;22.90;43.30;;;;;;5067590;28;45601;-60
2021/04/02 01:33:42;;;;;;;4.45;2.88;;;22.90;43.40;;;;;;5082349;28;45538;-60
2021/04/02 01:36:08;;;;;;;3.90;2.30;;;22.90;43.30;;;;;;5069268;28;46253;-60
2021/04/02 01:38:35;;;;;;;4.47;2.72;;;22.90;43.30;;;;;;5086619;28;45336;-60
2021/04/02 01:41:02;;;;;;;5.32;3.00;;;22.90;43.30;;;;;;5061861;28;45314;-60
2021/04/02 01:43:36;;;;;;;4.25;2.55;;;22.90;43.40;;;;;;5066736;28;45724;-60
2021/04/02 01:46:03;;;;;;;4.03;2.42;;;22.90;43.40;;;;;;5082340;27;46130;-60
2021/04/02 01:48:28;;;;;;;4.43;2.75;;;22.90;43.40;;;;;;5089526;28;45287;-61
2021/04/02 01:50:54;;;;;;;3.95;2.28;;;22.90;43.40;;;;;;5069913;28;45314;-60
2021/04/02 01:53:21;;;;;;;6.15;2.85;;;22.90;43.40;;;;;;5070425;28;45268;-60
2021/04/02 01:55:48;;;;;;;5.50;3.25;;;22.90;43.40;;;;;;5069825;28;45351;-60
2021/04/02 01:58:13;;;;;;;4.20;3.03;;;22.90;43.40;;;;;;5069510;28;45247;-61
2021/04/02 02:00:42;;;;;;;4.50;2.75;;;22.90;43.40;;;;;;5069916;28;45356;-60
2021/04/02 02:03:08;;;;;;;3.80;2.75;;;22.90;43.40;;;;;;5070154;28;45344;-60
2021/04/02 02:05:34;;;;;;;4.70;2.72;;;22.80;43.30;;;;;;5069471;28;45876;-60
2021/04/02 02:08:01;;;;;;;3.70;2.40;;;22.90;43.40;;;;;;5069461;28;45281;-60
2021/04/02 02:10:27;;;;;;;5.05;2.40;;;22.90;43.40;;;;;;5069500;28;45396;-60
2021/04/02 02:12:54;;;;;;;4.40;2.70;;;22.90;43.40;;;;;;5069884;28;45371;-60
2021/04/02 02:15:19;;;;;;;4.55;2.72;;;22.90;43.40;;;;;;5068995;28;46152;-60
2021/04/02 02:17:55;;;;;;;4.07;2.40;;;22.80;43.30;;;;;;5069571;28;45289;-60
2021/04/02 02:20:21;;;;;;;4.18;2.80;;;22.90;43.40;;;;;;5070570;28;45348;-60
2021/04/02 02:22:46;;;;;;;3.75;2.45;;;22.90;43.40;;;;;;5069887;28;45573;-60
2021/04/02 02:25:12;;;;;;;4.15;2.70;;;22.80;43.30;;;;;;5069244;28;46903;-60
2021/04/02 02:27:38;;;;;;;4.75;2.58;;;22.90;43.40;;;;;;5069185;28;45211;-60
2021/04/02 02:30:12;;;;;;;4.68;2.67;;;22.80;43.90;;;;;;5068519;28;45726;-60
2021/04/02 02:32:38;;;;;;;3.95;2.50;;;22.80;43.30;;;;;;5074279;28;45453;-60
2021/04/02 02:35:06;;;;;;;4.03;2.58;;;22.80;43.40;;;;;;5089501;28;45389;-60
2021/04/02 02:37:31;;;;;;;3.97;2.50;;;22.80;43.40;;;;;;5077559;28;45362;-60
2021/04/02 02:39:57;;;;;;;4.07;2.58;;;22.80;43.40;;;;;;5072627;28;45565;-60
2021/04/02 02:42:22;;;;;;;4.68;3.08;;;22.80;43.40;;;;;;5072482;28;45542;-60
2021/04/02 02:44:48;;;;;;;4.20;2.50;;;22.80;43.40;;;;;;5089020;28;45997;-60
2021/04/02 02:47:14;;;;;;;4.22;2.40;;;22.80;43.40;;;;;;5089499;28;45306;-60
2021/04/02 02:49:39;;;;;;;3.72;2.60;;;22.80;43.40;;;;;;5089609;28;45373;-60
2021/04/02 02:52:05;;;;;;;5.88;2.70;;;22.80;43.40;;;;;;5089957;28;45398;-60
2021/04/02 02:54:31;;;;;;;4.93;2.83;;;22.80;43.40;;;;;;5088764;28;47077;-60
2021/04/02 02:56:57;;;;;;;3.63;2.22;;;22.80;43.30;;;;;;5088386;27;45197;-60
2021/04/02 02:59:24;;;;;;;3.30;2.00;;;22.80;43.40;;;;;;5089127;28;45295;-60
2021/04/02 03:01:50;;;;;;;4.65;2.47;;;22.80;43.50;;;;;;5089374;28;45512;-60
2021/04/02 03:04:16;;;;;;;3.58;2.40;;;22.80;43.50;;;;;;5088953;28;47115;-60
2021/04/02 03:06:41;;;;;;;3.80;2.53;;;22.80;43.50;;;;;;5089012;28;45299;-60
2021/04/02 03:09:11;;;;;;;4.68;2.65;;;22.80;43.40;;;;;;5088733;28;45437;-60
2021/04/02 03:11:37;;;;;;;3.80;2.45;;;22.80;44.00;;;;;;5089539;28;45473;-60
2021/04/02 03:14:03;;;;;;;4.82;3.58;;;22.80;43.50;;;;;;5088850;28;45233;-60
2021/04/02 03:16:29;;;;;;;4.72;2.80;;;22.80;43.50;;;;;;5088757;28;45342;-60
2021/04/02 03:18:56;;;;;;;5.35;2.30;;;22.80;43.50;;;;;;5089114;28;45278;-60
2021/04/02 03:21:21;;;;;;;4.25;2.63;;;22.80;43.50;;;;;;5089356;28;45625;-60
2021/04/02 03:23:47;;;;;;;3.95;2.50;;;22.80;43.50;;;;;;5088572;28;47043;-60
2021/04/02 03:26:16;;;;;;;5.00;2.60;;;22.80;43.40;;;;;;5088509;28;45390;-60
2021/04/02 03:28:42;;;;;;;4.22;2.83;;;22.70;43.30;;;;;;5088146;28;45282;-60
2021/04/02 03:31:08;;;;;;;4.55;2.70;;;22.80;43.40;;;;;;5089102;28;45357;-60
2021/04/02 03:33:35;;;;;;;4.57;2.85;;;22.80;44.00;;;;;;5087080;28;45228;-60
2021/04/02 03:36:03;;;;;;;3.42;2.00;;;22.80;43.40;;;;;;5071678;28;45459;-60
2021/04/02 03:38:34;;;;;;;3.90;2.65;;;22.80;43.40;;;;;;5087684;28;45545;-60
2021/04/02 03:41:01;;;;;;;4.22;2.65;;;22.80;43.50;;;;;;5082944;28;46729;-60
2021/04/02 03:43:26;;;;;;;3.58;2.42;;;22.80;43.40;;;;;;5068036;28;45291;-61
2021/04/02 03:45:52;;;;;;;5.38;2.97;;;22.80;43.40;;;;;;5062243;28;45341;-60
2021/04/02 03:48:18;;;;;;;3.92;2.30;;;22.80;43.40;;;;;;5088322;28;45442;-59
2021/04/02 03:50:45;;;;;;;4.18;2.85;;;22.80;43.40;;;;;;5071064;28;45515;-59
2021/04/02 03:53:36;;;;;;;3.97;2.67;;;22.80;43.40;;;;;;5070279;28;46159;-60
2021/04/02 03:56:02;;;;;;;4.40;2.70;;;22.80;43.40;;;;;;5087683;28;45370;-59
2021/04/02 03:58:28;;;;;;;4.85;2.60;;;22.80;43.40;;;;;;5075085;28;45293;-59
2021/04/02 04:00:59;;;;;;;4.82;2.65;;;22.80;43.50;;;;;;5068052;28;45315;-59
2021/04/02 04:03:24;;;;;;;4.22;2.33;;;22.80;43.50;;;;;;5087205;28;46210;-59
2021/04/02 04:05:52;;;;;;;4.03;2.67;;;22.80;43.50;;;;;;5066541;28;45264;-59
2021/04/02 04:08:18;;;;;;;4.25;2.58;;;22.70;43.50;;;;;;5067024;28;45328;-59
2021/04/02 04:10:44;;;;;;;3.65;2.28;;;22.70;43.50;;;;;;5077389;28;45639;-59
2021/04/02 04:13:12;;;;;;;4.70;2.88;;;22.80;43.50;;;;;;5087623;28;45417;-59
2021/04/02 04:15:39;;;;;;;4.35;2.83;;;22.80;43.50;;;;;;5069712;28;45603;-59
2021/04/02 04:18:05;;;;;;;3.80;2.58;;;22.80;43.50;;;;;;5067455;28;45266;-59
2021/04/02 04:20:30;;;;;;;5.22;2.83;;;22.70;43.50;;;;;;5067691;28;45514;-59
2021/04/02 04:22:56;;;;;;;5.85;2.90;;;22.70;43.40;;;;;;5066935;28;46493;-60
2021/04/02 04:25:24;;;;;;;4.63;3.03;;;22.80;43.50;;;;;;5067443;28;45271;-59
2021/04/02 04:27:49;;;;;;;3.83;2.40;;;22.70;43.50;;;;;;5080988;28;45444;-59
2021/04/02 04:30:16;;;;;;;4.10;2.40;;;22.80;43.50;;;;;;5087466;28;45584;-60
2021/04/02 04:32:41;;;;;;;4.40;2.55;;;22.70;43.50;;;;;;5086895;28;46712;-59
2021/04/02 04:35:12;;;;;;;4.40;2.50;;;22.70;43.50;;;;;;5066836;28;45447;-59
2021/04/02 04:37:38;;;;;;;5.47;2.75;;;22.70;43.50;;;;;;5068050;28;45365;-59
2021/04/02 04:40:04;;;;;;;4.22;2.70;;;22.70;43.50;;;;;;5059302;28;45553;-60
2021/04/02 04:42:30;;;;;;;3.80;2.25;;;22.70;43.50;;;;;;5067230;28;45497;-59
2021/04/02 04:44:55;;;;;;;4.35;2.45;;;22.70;43.50;;;;;;5066703;28;45439;-59
2021/04/02 04:47:21;;;;;;;4.22;2.42;;;22.70;43.60;;;;;;5066746;28;45394;-59
2021/04/02 04:49:46;;;;;;;4.53;2.60;;;22.70;43.60;;;;;;5067475;28;45338;-59
2021/04/02 04:52:14;;;;;;;3.60;2.45;;;22.80;43.60;;;;;;5066511;28;46166;-60
2021/04/02 04:54:40;;;;;;;3.53;2.25;;;22.80;43.60;;;;;;5066691;28;45228;-59
2021/04/02 04:57:07;;;;;;;4.40;2.85;;;22.80;43.50;;;;;;5080129;28;45276;-60
2021/04/02 04:59:32;;;;;;;4.18;2.58;;;22.80;43.50;;;;;;5086928;28;45438;-60
2021/04/02 05:01:58;;;;;;;4.75;2.45;;;22.80;43.50;;;;;;5070091;28;46412;-60
2021/04/02 05:04:24;;;;;;;4.25;2.85;;;22.80;43.50;;;;;;5077322;28;45353;-59
2021/04/02 05:06:52;;;;;;;4.10;2.15;;;22.80;43.50;;;;;;5066976;28;45317;-59
2021/04/02 05:09:18;;;;;;;3.97;2.42;;;22.90;43.40;;;;;;5078609;28;45146;-59
2021/04/02 05:11:44;;;;;;;4.45;2.28;;;22.90;43.40;;;;;;5086953;28;46251;-59
2021/04/02 05:14:09;;;;;;;4.07;2.47;;;22.90;43.40;;;;;;5086520;28;45358;-59
2021/04/02 05:16:35;;;;;;;4.05;2.45;;;23.00;43.40;;;;;;5083647;28;45381;-60
2021/04/02 05:19:00;;;;;;;3.85;2.72;;;23.00;43.40;;;;;;5067041;28;45209;-59
2021/04/02 05:21:26;;;;;;;5.00;2.78;;;23.00;43.30;;;;;;5072836;28;46177;-60
2021/04/02 05:23:52;;;;;;;4.38;2.63;;;23.00;43.50;;;;;;5086961;28;45227;-59
2021/04/02 05:26:18;;;;;;;4.75;2.60;;;23.00;43.60;;;;;;5083216;28;45306;-58
2021/04/02 05:28:44;;;;;;;5.05;2.47;;;23.00;43.60;;;;;;5086617;28;45536;-60
2021/04/02 05:31:11;;;;;;;6.95;3.95;;;23.00;43.70;;;;;;5068308;28;45988;-61
2021/04/02 05:33:36;;;;;;;6.13;3.30;;;23.00;43.70;;;;;;5078714;28;45407;-60
2021/04/02 05:36:02;;;;;;;7.65;4.32;;;23.00;43.60;;;;;;5080501;28;45297;-59
2021/04/02 05:38:28;;;;;;;7.13;4.43;;;22.90;43.60;;;;;;5076935;28;45581;-60
2021/04/02 05:40:54;;;;;;;7.93;4.05;;;23.00;43.50;;;;;;5069033;28;45961;-59
2021/04/02 05:43:37;;;;;;;7.78;4.00;;;23.00;43.50;;;;;;5086807;28;45258;-60
2021/04/02 05:46:03;;;;;;;5.38;3.35;;;23.00;43.30;;;;;;5071917;28;45259;-59
2021/04/02 05:48:31;;;;;;;8.40;3.88;;;23.00;43.30;;;;;;5082795;28;45543;-59
2021/04/02 05:50:57;;;;;;;5.80;3.08;;;23.00;43.20;;;;;;5065868;28;46168;-59
2021/04/02 05:53:22;;;;;;;5.18;3.38;;;23.10;43.20;;;;;;5065846;28;45351;-59
2021/04/02 05:55:48;;;;;;;9.80;4.00;;;23.10;43.20;;;;;;5066220;28;45344;-59
2021/04/02 05:58:14;;;;;;;7.90;4.45;;;23.10;43.10;;;;;;5066412;28;45338;-59
2021/04/02 06:00:40;;;;;;;8.77;3.83;;;23.20;43.00;;;;;;5066200;28;45438;-60
2021/04/02 06:03:07;;;;;;;6.63;3.53;;;23.20;42.90;;;;;;5069323;28;45380;-60
2021/04/02 06:05:32;;;;;;;9.95;5.15;;;23.20;42.90;;;;;;5076077;28;45411;-60
2021/04/02 06:07:58;;;;;;;7.45;4.72;;;23.20;42.80;;;;;;5066212;28;45377;-61
2021/04/02 06:10:24;;;;;;;6.97;4.35;;;23.20;42.70;;;;;;5072585;28;45992;-58
2021/04/02 06:12:50;;;;;;;6.57;4.53;;;23.20;42.70;;;;;;5080903;28;45175;-59
2021/04/02 06:15:18;;;;;;;6.78;4.63;;;23.10;42.50;;;;;;5075160;28;45433;-59
2021/04/02 06:18:16;;;;;;;10.20;4.63;;;23.10;42.40;;;;;;5066271;28;45346;-59
2021/04/02 06:20:44;;;;;;;6.90;4.18;;;23.20;42.30;;;;;;5055271;28;47139;-60
2021/04/02 06:23:13;;;;;;;6.28;3.63;;;23.20;42.60;;;;;;5065716;28;45312;-60
2021/04/02 06:25:40;;;;;;;6.57;3.83;;;23.20;42.60;;;;;;5067003;28;45248;-60
2021/04/02 06:28:13;;;;;;;9.20;4.63;;;23.20;42.50;;;;;;5068526;28;45330;-60
2021/04/02 06:30:40;;;;;;;8.23;4.88;;;23.20;42.40;;;;;;5085513;28;46903;-59
2021/04/02 06:33:08;;;;;;;8.32;4.40;;;23.30;42.40;;;;;;5086913;27;45276;-59
2021/04/02 06:35:35;;;;;;;6.22;3.70;;;23.30;42.30;;;;;;5089485;28;45227;-59
2021/04/02 06:38:01;;;;;;;6.90;4.25;;;23.30;42.20;;;;;;5089288;28;45248;-60
2021/04/02 06:40:28;;;;;;;9.50;4.50;;;23.30;42.10;;;;;;5072144;28;46200;-60
2021/04/02 06:42:54;;;;;;;8.55;4.18;;;23.20;42.00;;;;;;5089388;28;45278;-60
2021/04/02 06:45:20;;;;;;;7.95;4.47;;;23.30;42.00;;;;;;5084058;28;45602;-60
2021/04/02 06:47:46;;;;;;;9.68;4.70;;;23.30;42.10;;;;;;5089726;28;45397;-59
2021/04/02 06:50:16;;;;;;;9.52;4.25;;;23.20;41.90;;;;;;5069897;28;45295;-59
2021/04/02 06:52:41;;;;;;;6.72;4.20;;;23.20;41.80;;;;;;5069836;28;45192;-59
2021/04/02 06:55:09;;;;;;;6.20;4.03;;;23.20;41.70;;;;;;5071186;28;45370;-59
2021/04/02 06:57:34;;;;;;;7.07;4.28;;;23.30;41.90;;;;;;5084172;28;45611;-57
2021/04/02 07:00:00;;;;;;;8.38;4.60;;;23.20;42.00;;;;;;5080141;28;48998;-58
2021/04/02 07:02:27;;;;;;;13.93;6.00;;;23.30;42.60;;;;;;5085954;28;45592;-58
2021/04/02 07:04:54;;;;;;;15.40;6.82;;;23.30;41.70;;;;;;5087214;28;45359;-58
2021/04/02 07:07:19;;;;;;;16.27;7.22;;;23.20;40.90;;;;;;5083363;28;45647;-58
2021/04/02 07:09:45;;;;;;;16.23;7.25;;;23.20;40.90;;;;;;5086832;28;47351;-58
2021/04/02 07:12:10;;;;;;;21.77;7.20;;;23.10;41.40;;;;;;5079077;28;45441;-58
2021/04/02 07:14:36;;;;;;;22.92;7.97;;;23.10;41.50;;;;;;5087143;28;45319;-58
2021/04/02 07:17:02;;;;;;;25.42;8.00;;;23.10;41.40;;;;;;5061501;28;45519;-58
2021/04/02 07:19:28;;;;;;;16.75;8.13;;;23.10;41.00;;;;;;5068177;28;45415;-58
2021/04/02 07:21:54;;;;;;;15.95;7.72;;;23.00;40.30;;;;;;5068233;28;45403;-58
2021/04/02 07:24:20;;;;;;;16.75;8.27;;;23.00;39.60;;;;;;5068425;28;45350;-58
2021/04/02 07:26:47;;;;;;;15.48;7.13;;;23.00;39.10;;;;;;5070416;28;45288;-58
2021/04/02 07:29:13;;;;;;;18.80;8.02;;;23.00;38.80;;;;;;5068686;28;45969;-58
2021/04/02 07:31:39;;;;;;;18.65;8.70;;;22.90;38.60;;;;;;5074214;28;45490;-59
2021/04/02 07:34:06;;;;;;;16.20;6.88;;;22.90;38.10;;;;;;5080209;28;45337;-61
2021/04/02 07:36:34;;;;;;;15.23;7.20;;;22.90;38.50;;;;;;5084193;28;45634;-64
2021/04/02 07:38:59;;;;;;;15.18;7.35;;;22.90;38.40;;;;;;5081285;28;47234;-58
2021/04/02 07:41:25;;;;;;;15.88;7.97;;;22.90;38.30;;;;;;5070612;28;45275;-60
2021/04/02 07:43:53;;;;;;;20.55;8.45;;;23.00;38.40;;;;;;5087681;27;45263;-61
2021/04/02 07:46:23;;;;;;;20.85;7.70;;;23.10;39.50;;;;;;5051820;28;45284;-61
2021/04/02 07:49:04;;;;;;;24.70;8.25;;;23.00;40.70;;;;;;5068941;28;45429;-62
2021/04/02 07:51:42;;;;;;;16.83;7.00;;;23.20;40.70;;;;;;5068994;28;45347;-62
2021/04/02 07:54:18;;;;;;;22.80;8.32;;;23.20;40.60;;;;;;5067986;28;45374;-61
2021/04/02 07:56:55;;;;;;;17.27;7.00;;;23.10;41.30;;;;;;5069902;28;45501;-61
2021/04/02 07:59:37;;;;;;;23.90;8.18;;;23.10;41.90;;;;;;5067516;28;46618;-61
2021/04/02 08:02:04;;;;;;;22.25;7.57;;;23.10;42.30;;;;;;5068001;28;45386;-61
2021/04/02 08:04:42;;;;;;;18.58;7.38;;;23.00;42.20;;;;;;5067834;28;45355;-62
2021/04/02 08:07:15;;;;;;;16.55;7.15;;;23.00;42.40;;;;;;5069419;28;45287;-59
2021/04/02 08:09:50;;;;;;;14.43;6.63;;;23.10;42.40;;;;;;5083697;28;45353;-60
2021/04/02 08:12:16;;;;;;;15.15;6.95;;;23.10;42.10;;;;;;5086490;28;45673;-62
2021/04/02 08:14:47;;;;;;;18.45;7.20;;;23.10;42.10;;;;;;5070815;28;45478;-60
2021/04/02 08:17:13;;;;;;;15.20;6.82;;;23.10;42.30;;;;;;5073406;28;45586;-60
2021/04/02 08:19:39;;;;;;;12.68;6.30;;;23.10;42.40;;;;;;5067018;28;46904;-63
2021/04/02 08:22:15;;;;;;;14.13;6.40;;;23.20;42.50;;;;;;5086951;28;45388;-63
2021/04/02 08:24:45;;;;;;;13.63;6.20;;;23.20;43.30;;;;;;5067738;28;45486;-63
2021/04/02 08:27:11;;;;;;;15.02;6.72;;;23.20;42.60;;;;;;5051255;28;45558;-58
2021/04/02 08:29:38;;;;;;;11.27;6.70;;;23.20;42.70;;;;;;5052234;28;46021;-61
2021/04/02 08:32:08;;;;;;;15.88;6.85;;;23.20;43.00;;;;;;5066974;28;45697;-62
2021/04/02 08:34:34;;;;;;;16.17;6.85;;;23.30;43.00;;;;;;5083390;28;45341;-62
2021/04/02 08:37:02;;;;;;;10.25;6.07;;;23.30;43.00;;;;;;5066959;28;45289;-63
2021/04/02 08:39:28;;;;;;;17.10;7.78;;;23.30;43.10;;;;;;5075468;28;46419;-62
2021/04/02 08:42:00;;;;;;;13.63;6.70;;;23.30;43.20;;;;;;5076700;28;45506;-62
2021/04/02 08:44:36;;;;;;;11.90;6.18;;;23.30;43.20;;;;;;5086014;28;45739;-64
2021/04/02 08:47:04;;;;;;;12.13;6.45;;;23.20;43.20;;;;;;5079620;28;45432;-66
2021/04/02 08:49:47;;;;;;;11.45;6.70;;;23.20;43.30;;;;;;5080975;28;46284;-64
2021/04/02 08:52:18;;;;;;;16.25;6.57;;;23.20;43.40;;;;;;5073463;28;45525;-61
2021/04/02 08:54:45;;;;;;;13.02;6.20;;;23.20;43.40;;;;;;5074369;27;45414;-63
2021/04/02 08:57:11;;;;;;;21.30;6.97;;;23.20;43.10;;;;;;5072572;28;45444;-63
2021/04/02 08:59:38;;;;;;;10.73;6.20;;;23.20;42.90;;;;;;5066803;28;47273;-61
2021/04/02 09:02:05;;;;;;;11.73;6.63;;;23.20;42.90;;;;;;5080616;28;45429;-61
2021/04/02 09:04:30;;;;;;;10.02;5.53;;;23.20;42.90;;;;;;5055943;28;45477;-61
2021/04/02 09:06:56;;;;;;;12.30;5.90;;;23.30;43.00;;;;;;5067021;28;45458;-61
2021/04/02 09:09:22;;;;;;;15.10;5.97;;;23.20;42.90;;;;;;5055703;28;46176;-64
2021/04/02 09:11:54;;;;;;;11.23;6.25;;;23.20;43.20;;;;;;5059285;28;45513;-66
2021/04/02 09:14:20;;;;;;;11.50;6.28;;;23.30;43.40;;;;;;5084789;28;45588;-67
2021/04/02 09:16:46;;;;;;;16.98;8.48;;;23.30;42.80;;;;;;5086478;28;45618;-66
2021/04/02 09:19:12;;;;;;;14.10;9.43;;;23.20;41.30;;;;;;5086340;28;46853;-64
2021/04/02 09:21:38;;;;;;;19.90;9.25;;;23.20;40.00;;;;;;5085578;28;45276;-63
2021/04/02 09:24:04;;;;;;;13.07;8.50;;;23.20;40.30;;;;;;5087029;28;45342;-62
2021/04/02 09:26:38;;;;;;;10.90;7.20;;;23.20;40.50;;;;;;5086636;28;45277;-63
2021/04/02 09:29:03;;;;;;;11.85;7.28;;;23.30;40.70;;;;;;5082299;27;47059;-63
2021/04/02 09:31:34;;;;;;;10.32;6.15;;;23.30;40.90;;;;;;5071981;28;45424;-64
2021/04/02 09:34:04;;;;;;;11.48;6.80;;;23.40;41.30;;;;;;5080234;28;45396;-63
2021/04/02 09:36:31;;;;;;;10.55;5.47;;;23.30;41.30;;;;;;5070567;28;45478;-62
2021/04/02 09:39:07;;;;;;;9.73;6.32;;;23.30;41.50;;;;;;5078900;28;45351;-64
2021/04/02 09:41:33;;;;;;;11.98;6.57;;;23.30;41.40;;;;;;5078425;27;46401;-64
2021/04/02 09:44:05;;;;;;;9.48;6.97;;;23.30;41.40;;;;;;5065145;28;45458;-64
2021/04/02 09:46:39;;;;;;;11.88;7.35;;;23.20;40.50;;;;;;5080647;28;45472;-64
2021/04/02 09:49:15;;;;;;;12.55;6.70;;;23.20;39.70;;;;;;5070229;28;47182;-64
2021/04/02 09:51:42;;;;;;;13.75;7.22;;;23.20;38.70;;;;;;5069809;28;45201;-64
2021/04/02 09:54:08;;;;;;;13.77;7.03;;;23.20;39.40;;;;;;5085106;28;45616;-64
2021/04/02 09:56:34;;;;;;;12.32;6.90;;;23.20;38.60;;;;;;5079887;28;45488;-64
2021/04/02 09:59:00;;;;;;;10.65;6.53;;;23.10;38.30;;;;;;5077977;28;45394;-64
2021/04/02 10:01:26;;;;;;;12.70;7.00;;;23.10;38.10;;;;;;5086201;28;45413;-64
2021/04/02 10:03:51;;;;;;;12.77;6.57;;;23.10;38.10;;;;;;5086302;28;45548;-64
2021/04/02 10:06:18;;;;;;;9.65;5.45;;;23.10;37.70;;;;;;5072909;28;45465;-57
2021/04/02 10:08:44;;;;;;;11.60;7.05;;;23.10;37.40;;;;;;5083245;28;46326;-57
2021/04/02 10:11:10;;;;;;;18.45;8.70;;;23.10;35.50;;;;;;5086400;28;45424;-59
2021/04/02 10:13:36;;;;;;;14.13;7.85;;;23.00;34.50;;;;;;5069270;28;45395;-62
2021/04/02 10:16:01;;;;;;;11.52;7.00;;;23.00;33.80;;;;;;5070611;28;45590;-60
2021/04/02 10:18:28;;;;;;;13.77;7.88;;;22.90;34.60;;;;;;5068977;28;47018;-61
2021/04/02 10:20:54;;;;;;;16.95;7.45;;;22.90;34.70;;;;;;5067494;28;45469;-59
2021/04/02 10:23:20;;;;;;;14.18;6.30;;;22.90;35.00;;;;;;5088508;28;45353;-60
2021/04/02 10:25:46;;;;;;;13.75;6.43;;;22.90;35.80;;;;;;5089894;28;45282;-56
2021/04/02 10:28:11;;;;;;;13.45;6.28;;;22.90;36.20;;;;;;5088098;28;47012;-60
2021/04/02 10:30:37;;;;;;;14.85;7.13;;;23.00;36.90;;;;;;5089082;28;45441;-58
2021/04/02 10:33:02;;;;;;;13.82;7.38;;;23.00;37.40;;;;;;5066827;28;45298;-61
2021/04/02 10:35:29;;;;;;;9.73;5.80;;;23.00;37.80;;;;;;5069287;28;45544;-62
2021/04/02 10:37:55;;;;;;;20.98;7.50;;;23.00;38.10;;;;;;5068050;28;45342;-62
2021/04/02 10:40:21;;;;;;;17.15;8.10;;;23.00;38.50;;;;;;5068655;28;45457;-61
2021/04/02 10:42:46;;;;;;;13.27;8.68;;;23.00;38.80;;;;;;5072468;28;45315;-60
2021/04/02 10:45:13;;;;;;;11.80;7.63;;;23.10;39.10;;;;;;5074543;28;45464;-60
2021/04/02 10:47:38;;;;;;;20.65;9.07;;;23.00;39.50;;;;;;5056870;28;45537;-61
2021/04/02 10:50:05;;;;;;;16.02;8.57;;;23.00;39.30;;;;;;5065370;28;45394;-60
2021/04/02 10:52:30;;;;;;;19.65;9.40;;;23.00;39.40;;;;;;5067812;28;45663;-61
2021/04/02 10:54:56;;;;;;;13.57;8.05;;;22.90;39.50;;;;;;5068809;28;45551;-61
2021/04/02 10:57:22;;;;;;;13.68;8.10;;;22.90;39.70;;;;;;5068548;28;45991;-61
2021/04/02 10:59:47;;;;;;;14.45;7.47;;;22.90;40.00;;;;;;5068493;28;45259;-61
2021/04/02 11:02:13;;;;;;;12.80;7.45;;;22.90;40.20;;;;;;5068864;28;45379;-61
2021/04/02 11:04:40;;;;;;;18.02;7.90;;;22.90;40.40;;;;;;5068938;28;45319;-61
2021/04/02 11:07:07;;;;;;;14.18;7.07;;;22.90;40.50;;;;;;5067672;28;45500;-61
2021/04/02 11:09:33;;;;;;;17.33;6.43;;;22.90;40.70;;;;;;5068257;28;45404;-61
2021/04/02 11:11:58;;;;;;;11.65;6.60;;;22.90;40.80;;;;;;5074524;28;45357;-61
2021/04/02 11:14:24;;;;;;;12.05;6.65;;;22.90;40.90;;;;;;5068841;28;45416;-61
2021/04/02 11:16:50;;;;;;;14.00;6.22;;;22.90;41.10;;;;;;5068176;28;46157;-61
2021/04/02 11:19:15;;;;;;;10.10;5.75;;;22.90;41.20;;;;;;5070652;28;45386;-61
2021/04/02 11:21:41;;;;;;;14.23;6.40;;;22.90;41.30;;;;;;5088550;28;45378;-61
2021/04/02 11:24:07;;;;;;;12.32;6.20;;;22.90;41.40;;;;;;5089085;28;45780;-61
2021/04/02 11:26:33;;;;;;;11.88;6.57;;;22.90;41.40;;;;;;5088108;28;46443;-61
2021/04/02 11:28:58;;;;;;;15.25;6.55;;;22.90;41.50;;;;;;5088255;28;45537;-61
2021/04/02 11:31:24;;;;;;;12.85;6.55;;;22.90;41.50;;;;;;5088527;28;45473;-62
2021/04/02 11:33:50;;;;;;;12.30;6.28;;;22.90;41.70;;;;;;5088852;28;45341;-62
2021/04/02 11:36:16;;;;;;;11.52;6.10;;;22.90;41.70;;;;;;5087348;28;47050;-61
2021/04/02 11:38:42;;;;;;;11.02;5.97;;;22.90;41.70;;;;;;5088496;28;45353;-61
2021/04/02 11:41:07;;;;;;;12.70;6.22;;;22.90;41.70;;;;;;5088373;28;45512;-61
2021/04/02 11:43:33;;;;;;;13.50;6.22;;;22.90;41.70;;;;;;5071611;28;45453;-61
2021/04/02 11:45:59;;;;;;;8.10;5.43;;;22.90;41.70;;;;;;5071141;28;47114;-61
2021/04/02 11:48:25;;;;;;;9.27;6.07;;;22.90;41.80;;;;;;5087901;28;45450;-61
2021/04/02 11:50:50;;;;;;;8.95;5.10;;;22.90;41.80;;;;;;5087763;28;45318;-61
2021/04/02 11:53:16;;;;;;;11.82;6.40;;;22.90;42.00;;;;;;5085542;28;45280;-60
2021/04/02 11:55:42;;;;;;;9.18;5.30;;;22.90;42.10;;;;;;5067576;28;45379;-61
2021/04/02 11:58:07;;;;;;;8.65;5.95;;;22.90;42.10;;;;;;5084664;28;45386;-61
2021/04/02 12:00:33;;;;;;;9.95;5.07;;;22.90;42.20;;;;;;5068681;28;45645;-61
2021/04/02 12:02:59;;;;;;;8.73;5.35;;;22.90;42.20;;;;;;5067237;28;45454;-61
2021/04/02 12:05:24;;;;;;;12.30;6.15;;;22.90;42.20;;;;;;5067408;28;46485;-61
2021/04/02 12:07:53;;;;;;;8.65;5.03;;;22.90;42.20;;;;;;5070681;28;45397;-60
2021/04/02 12:10:19;;;;;;;8.52;5.32;;;22.90;42.30;;;;;;5084660;28;45329;-60
2021/04/02 12:12:44;;;;;;;9.35;6.00;;;22.90;42.50;;;;;;5070731;28;45629;-61
2021/04/02 12:15:11;;;;;;;9.02;5.68;;;22.90;42.50;;;;;;5087341;28;47182;-61
2021/04/02 12:17:36;;;;;;;8.55;5.18;;;22.90;42.50;;;;;;5087699;28;45365;-60
2021/04/02 12:20:14;;;;;;;8.40;5.22;;;22.90;42.40;;;;;;5067261;28;45546;-61
2021/04/02 12:22:39;;;;;;;9.82;5.10;;;22.90;42.50;;;;;;5069050;28;45453;-61
2021/04/02 12:25:07;;;;;;;7.53;4.65;;;22.90;42.50;;;;;;5067137;28;45422;-61
2021/04/02 12:27:32;;;;;;;12.60;6.05;;;22.90;42.50;;;;;;5072380;28;45812;-61
2021/04/02 12:29:58;;;;;;;9.20;4.65;;;22.90;42.80;;;;;;5085935;27;45532;-60
2021/04/02 12:32:24;;;;;;;7.88;5.30;;;22.90;42.70;;;;;;5087892;28;45366;-61
2021/04/02 12:34:49;;;;;;;11.93;5.13;;;22.90;42.70;;;;;;5087277;28;46343;-61
2021/04/02 12:37:16;;;;;;;11.77;6.18;;;22.90;42.80;;;;;;5086825;28;45642;-61
2021/04/02 12:39:41;;;;;;;10.38;5.50;;;22.90;42.70;;;;;;5087025;28;45382;-61
2021/04/02 12:42:08;;;;;;;12.38;6.07;;;22.90;42.60;;;;;;5070859;28;45517;-61
2021/04/02 12:44:33;;;;;;;9.40;5.50;;;22.90;42.70;;;;;;5064856;28;47083;-61